createdAt,value
2018-04-08T00:01:35.232Z,0.00
2018-04-08T00:02:35.190Z,0.00
2018-04-08T00:04:28.035Z,0.00
2018-04-08T00:05:27.969Z,0.00
2018-04-08T00:07:21.277Z,0.00
2018-04-08T00:08:21.242Z,0.00
2018-04-08T00:10:14.283Z,0.00
2018-04-08T00:11:14.246Z,0.00
2018-04-08T00:13:07.603Z,0.00
2018-04-08T00:14:07.522Z,0.00
2018-04-08T00:16:00.311Z,0.00
2018-04-08T00:17:00.281Z,0.00
2018-04-08T00:18:53.318Z,0.00
2018-04-08T00:19:53.242Z,0.00
2018-04-08T00:21:46.284Z,0.00
2018-04-08T00:22:46.258Z,0.00
2018-04-08T00:24:39.290Z,0.00
2018-04-08T00:25:39.231Z,0.00
2018-04-08T00:27:32.063Z,0.00
2018-04-08T00:28:32.006Z,0.00
2018-04-08T00:30:25.343Z,0.00
2018-04-08T00:31:25.272Z,0.00
2018-04-08T00:33:18.094Z,0.00
2018-04-08T00:34:18.094Z,0.00
2018-04-08T00:36:10.886Z,0.00
2018-04-08T00:37:10.811Z,0.00
2018-04-08T00:39:03.647Z,0.00
2018-04-08T00:40:03.615Z,0.00
2018-04-08T00:41:57.037Z,0.00
2018-04-08T00:42:57.043Z,0.00
2018-04-08T00:44:50.240Z,0.00
2018-04-08T00:45:50.166Z,0.00
2018-04-08T00:47:42.980Z,0.00
2018-04-08T00:48:42.939Z,0.00
2018-04-08T00:50:36.472Z,0.00
2018-04-08T00:51:36.247Z,0.00
2018-04-08T00:53:29.565Z,0.00
2018-04-08T00:54:29.538Z,0.00
2018-04-08T00:56:22.875Z,0.00
2018-04-08T00:57:22.814Z,0.00
2018-04-08T00:59:16.248Z,0.00
2018-04-08T01:00:16.075Z,0.00
2018-04-08T01:02:09.112Z,0.00
2018-04-08T01:03:09.048Z,0.00
2018-04-08T01:05:02.576Z,0.00
2018-04-08T01:06:02.312Z,0.00
2018-04-08T01:07:55.647Z,0.00
2018-04-08T01:08:55.583Z,0.00
2018-04-08T01:10:48.920Z,0.00
2018-04-08T01:11:48.874Z,0.00
2018-04-08T01:13:41.688Z,0.00
2018-04-08T01:14:41.767Z,0.00
2018-04-08T01:16:35.066Z,0.00
2018-04-08T01:17:34.944Z,0.00
2018-04-08T01:19:28.245Z,0.00
2018-04-08T01:20:28.208Z,0.00
2018-04-08T01:22:21.524Z,0.00
2018-04-08T01:23:21.489Z,0.00
2018-04-08T01:25:14.815Z,0.00
2018-04-08T01:26:14.742Z,0.00
2018-04-08T01:28:07.748Z,0.00
2018-04-08T01:29:07.695Z,0.00
2018-04-08T01:31:01.076Z,0.00
2018-04-08T01:32:00.975Z,0.00
2018-04-08T01:33:53.935Z,0.00
2018-04-08T01:34:53.920Z,0.00
2018-04-08T01:36:46.758Z,0.00
2018-04-08T01:37:46.704Z,0.00
2018-04-08T01:39:40.003Z,0.00
2018-04-08T01:40:39.954Z,0.00
2018-04-08T01:42:33.506Z,0.00
2018-04-08T01:43:33.273Z,0.00
2018-04-08T01:45:26.607Z,0.00
2018-04-08T01:46:26.564Z,0.00
2018-04-08T01:48:19.742Z,0.00
2018-04-08T01:49:19.712Z,0.00
2018-04-08T01:51:13.073Z,0.00
2018-04-08T01:52:13.020Z,0.00
2018-04-08T01:54:06.343Z,0.00
2018-04-08T01:55:06.308Z,0.00
2018-04-08T01:56:59.624Z,0.00
2018-04-08T01:57:59.566Z,0.00
2018-04-08T01:59:52.568Z,0.00
2018-04-08T02:00:52.533Z,0.00
2018-04-08T02:02:45.880Z,0.00
2018-04-08T02:03:45.833Z,0.00
2018-04-08T02:05:39.173Z,0.00
2018-04-08T02:06:39.139Z,0.00
2018-04-08T02:08:32.460Z,0.00
2018-04-08T02:09:32.473Z,0.00
2018-04-08T02:11:25.723Z,0.00
2018-04-08T02:12:25.685Z,0.00
2018-04-08T02:14:18.706Z,0.00
2018-04-08T02:15:18.673Z,0.00
2018-04-08T02:17:11.464Z,0.00
2018-04-08T02:18:11.408Z,0.00
2018-04-08T02:20:04.465Z,0.00
2018-04-08T02:21:04.259Z,0.00
2018-04-08T02:22:57.560Z,0.00
2018-04-08T02:23:57.550Z,0.00
2018-04-08T02:25:50.870Z,0.00
2018-04-08T02:26:50.818Z,0.00
2018-04-08T02:28:44.302Z,0.00
2018-04-08T02:29:44.093Z,0.00
2018-04-08T02:31:38.426Z,0.00
2018-04-08T02:32:38.367Z,0.00
2018-04-08T02:34:31.679Z,0.00
2018-04-08T02:35:31.631Z,0.00
2018-04-08T02:37:24.684Z,0.00
2018-04-08T02:38:24.646Z,0.00
2018-04-08T02:40:17.955Z,0.00
2018-04-08T02:41:17.945Z,0.00
2018-04-08T02:43:11.330Z,0.00
2018-04-08T02:44:11.221Z,0.00
2018-04-08T02:46:04.552Z,0.00
2018-04-08T02:47:04.484Z,0.00
2018-04-08T02:48:57.808Z,0.00
2018-04-08T02:49:57.775Z,0.00
2018-04-08T02:51:50.615Z,0.00
2018-04-08T02:52:50.555Z,0.00
2018-04-08T02:54:43.360Z,0.00
2018-04-08T02:55:43.335Z,0.00
2018-04-08T02:57:36.676Z,0.00
2018-04-08T02:58:36.613Z,0.00
2018-04-08T03:00:29.617Z,0.00
2018-04-08T03:01:29.588Z,0.00
2018-04-08T03:03:22.936Z,0.00
2018-04-08T03:04:22.870Z,0.00
2018-04-08T03:06:16.269Z,0.00
2018-04-08T03:07:16.156Z,0.00
2018-04-08T03:09:09.470Z,0.00
2018-04-08T03:10:09.436Z,0.00
2018-04-08T03:12:02.786Z,0.00
2018-04-08T03:13:02.715Z,0.00
2018-04-08T03:14:56.062Z,0.00
2018-04-08T03:15:55.992Z,0.00
2018-04-08T03:17:49.336Z,0.00
2018-04-08T03:18:49.280Z,0.00
2018-04-08T03:20:42.604Z,0.00
2018-04-08T03:21:42.671Z,0.00
2018-04-08T03:23:35.949Z,0.00
2018-04-08T03:24:35.846Z,0.00
2018-04-08T03:26:28.679Z,0.00
2018-04-08T03:27:28.635Z,0.00
2018-04-08T03:29:21.972Z,0.00
2018-04-08T03:30:21.906Z,0.00
2018-04-08T03:32:15.226Z,0.00
2018-04-08T03:33:15.184Z,0.00
2018-04-08T03:35:08.561Z,0.00
2018-04-08T03:36:08.465Z,0.00
2018-04-08T03:38:01.473Z,0.00
2018-04-08T03:39:01.481Z,0.00
2018-04-08T03:40:54.726Z,0.00
2018-04-08T03:41:54.687Z,0.00
2018-04-08T03:43:48.217Z,0.00
2018-04-08T03:44:48.011Z,0.00
2018-04-08T03:46:40.846Z,0.00
2018-04-08T03:47:40.782Z,0.00
2018-04-08T03:49:34.215Z,0.00
2018-04-08T03:50:34.140Z,0.00
2018-04-08T03:52:27.452Z,0.00
2018-04-08T03:53:27.415Z,0.00
2018-04-08T03:55:20.743Z,0.00
2018-04-08T03:56:20.705Z,0.00
2018-04-08T03:58:13.521Z,0.00
2018-04-08T03:59:13.472Z,0.00
2018-04-08T04:01:06.915Z,0.00
2018-04-08T04:02:06.777Z,0.00
2018-04-08T04:04:00.176Z,0.00
2018-04-08T04:05:00.082Z,0.00
2018-04-08T04:06:53.393Z,0.00
2018-04-08T04:07:53.371Z,0.00
2018-04-08T04:09:46.747Z,0.00
2018-04-08T04:10:46.646Z,0.00
2018-04-08T04:12:40.994Z,0.00
2018-04-08T04:13:40.958Z,0.00
2018-04-08T04:15:33.963Z,0.00
2018-04-08T04:16:33.720Z,0.00
2018-04-08T04:18:26.700Z,0.00
2018-04-08T04:19:26.668Z,0.00
2018-04-08T04:21:19.504Z,0.00
2018-04-08T04:22:19.472Z,0.00
2018-04-08T04:24:12.592Z,0.00
2018-04-08T04:25:12.547Z,0.00
2018-04-08T04:27:05.878Z,0.00
2018-04-08T04:28:05.834Z,4.00
2018-04-08T04:29:59.148Z,0.00
2018-04-08T04:30:59.111Z,4.00
2018-04-08T04:32:51.932Z,4.00
2018-04-08T04:33:51.891Z,4.00
2018-04-08T04:35:45.297Z,8.00
2018-04-08T04:36:45.163Z,8.00
2018-04-08T04:38:38.481Z,12.00
2018-04-08T04:39:38.447Z,16.00
2018-04-08T04:41:31.786Z,16.00
2018-04-08T04:42:31.719Z,20.00
2018-04-08T04:44:24.543Z,28.00
2018-04-08T04:45:24.526Z,32.00
2018-04-08T04:47:17.837Z,44.00
2018-04-08T04:48:17.774Z,48.00
2018-04-08T04:50:11.240Z,64.00
2018-04-08T04:51:11.112Z,68.00
2018-04-08T04:53:04.383Z,84.00
2018-04-08T04:54:04.385Z,96.00
2018-04-08T04:55:57.669Z,112.00
2018-04-08T04:56:57.622Z,128.00
2018-04-08T04:58:52.048Z,152.00
2018-04-08T04:59:51.907Z,168.00
2018-04-08T05:01:45.257Z,196.00
2018-04-08T05:02:45.207Z,216.00
2018-04-08T05:04:38.102Z,252.00
2018-04-08T05:05:38.081Z,272.00
2018-04-08T05:07:30.987Z,320.00
2018-04-08T05:08:30.847Z,344.00
2018-04-08T05:10:24.162Z,396.00
2018-04-08T05:11:24.126Z,424.00
2018-04-08T05:13:17.468Z,488.00
2018-04-08T05:14:17.408Z,524.00
2018-04-08T05:16:10.227Z,592.00
2018-04-08T05:17:10.191Z,632.00
2018-04-08T05:19:03.566Z,712.00
2018-04-08T05:20:03.503Z,752.00
2018-04-08T05:21:56.997Z,840.00
2018-04-08T05:22:56.784Z,884.00
2018-04-08T05:24:51.114Z,968.00
2018-04-08T05:25:51.093Z,1008.00
2018-04-08T05:27:44.244Z,1080.00
2018-04-08T05:28:44.152Z,1116.00
2018-04-08T05:30:37.490Z,1172.00
2018-04-08T05:31:37.429Z,1204.00
2018-04-08T05:33:30.484Z,1248.00
2018-04-08T05:34:30.272Z,1276.00
2018-04-08T05:36:23.587Z,1312.00
2018-04-08T05:37:23.560Z,1324.00
2018-04-08T05:39:16.895Z,1352.00
2018-04-08T05:40:16.827Z,1360.00
2018-04-08T05:42:09.823Z,1384.00
2018-04-08T05:43:09.774Z,1404.00
2018-04-08T05:45:03.113Z,1452.00
2018-04-08T05:46:03.055Z,1488.00
2018-04-08T05:47:55.865Z,1556.00
2018-04-08T05:48:55.837Z,1596.00
2018-04-08T05:50:49.198Z,1672.00
2018-04-08T05:51:48.999Z,1720.00
2018-04-08T05:53:42.320Z,1828.00
2018-04-08T05:54:42.265Z,1876.00
2018-04-08T05:56:35.180Z,1952.00
2018-04-08T05:57:35.118Z,1984.00
2018-04-08T05:59:28.452Z,2024.00
2018-04-08T06:00:28.425Z,2048.00
2018-04-08T06:02:21.718Z,2108.00
2018-04-08T06:03:21.678Z,2148.00
2018-04-08T06:05:15.169Z,2216.00
2018-04-08T06:06:15.013Z,2248.00
2018-04-08T06:08:08.336Z,2296.00
2018-04-08T06:09:08.298Z,2316.00
2018-04-08T06:11:01.624Z,2328.00
2018-04-08T06:12:01.585Z,2324.00
2018-04-08T06:13:55.053Z,2340.00
2018-04-08T06:14:54.844Z,2360.00
2018-04-08T06:16:48.189Z,2392.00
2018-04-08T06:17:48.138Z,2416.00
2018-04-08T06:19:41.450Z,2452.00
2018-04-08T06:20:41.396Z,2440.00
2018-04-08T06:22:34.919Z,2452.00
2018-04-08T06:23:34.749Z,2464.00
2018-04-08T06:25:28.050Z,2516.00
2018-04-08T06:26:28.004Z,2556.00
2018-04-08T06:28:21.128Z,2592.00
2018-04-08T06:29:21.084Z,2592.00
2018-04-08T06:31:14.663Z,2608.00
2018-04-08T06:32:14.466Z,2592.00
2018-04-08T06:34:07.783Z,2584.00
2018-04-08T06:35:07.806Z,2552.00
2018-04-08T06:37:01.117Z,2488.00
2018-04-08T06:38:01.044Z,2460.00
2018-04-08T06:39:54.498Z,2448.00
2018-04-08T06:40:54.363Z,2408.00
2018-04-08T06:42:47.688Z,2316.00
2018-04-08T06:43:47.652Z,2248.00
2018-04-08T06:45:41.007Z,2172.00
2018-04-08T06:46:40.925Z,2128.00
2018-04-08T06:48:33.913Z,2064.00
2018-04-08T06:49:33.878Z,2032.00
2018-04-08T06:51:26.978Z,2004.00
2018-04-08T06:52:26.799Z,1996.00
2018-04-08T06:54:21.119Z,2032.00
2018-04-08T06:55:21.103Z,2060.00
2018-04-08T06:57:14.468Z,2136.00
2018-04-08T06:58:14.367Z,2180.00
2018-04-08T07:00:07.689Z,2220.00
2018-04-08T07:01:07.646Z,2224.00
2018-04-08T07:03:02.089Z,2280.00
2018-04-08T07:04:01.944Z,2336.00
2018-04-08T07:05:55.259Z,2488.00
2018-04-08T07:06:55.214Z,2568.00
2018-04-08T07:08:49.589Z,2728.00
2018-04-08T07:09:49.534Z,2800.00
2018-04-08T07:11:43.905Z,2944.00
2018-04-08T07:12:43.854Z,3052.00
2018-04-08T07:14:37.161Z,3276.00
2018-04-08T07:15:37.131Z,3392.00
2018-04-08T07:17:30.406Z,3548.00
2018-04-08T07:18:30.365Z,3592.00
2018-04-08T07:20:23.758Z,3680.00
2018-04-08T07:21:23.661Z,3764.00
2018-04-08T07:23:16.651Z,3960.00
2018-04-08T07:24:16.442Z,4072.00
2018-04-08T07:26:09.770Z,4308.00
2018-04-08T07:27:09.726Z,4432.00
2018-04-08T07:29:03.082Z,4616.00
2018-04-08T07:30:03.018Z,4692.00
2018-04-08T07:31:56.447Z,4812.00
2018-04-08T07:32:56.300Z,4876.00
2018-04-08T07:34:49.654Z,5096.00
2018-04-08T07:35:49.607Z,5216.00
2018-04-08T07:37:42.967Z,5424.00
2018-04-08T07:38:42.896Z,5472.00
2018-04-08T07:40:36.319Z,5460.00
2018-04-08T07:41:36.186Z,5416.00
2018-04-08T07:43:30.651Z,5316.00
2018-04-08T07:44:30.575Z,5268.00
2018-04-08T07:46:23.911Z,5300.00
2018-04-08T07:47:23.956Z,5352.00
2018-04-08T07:49:18.225Z,5228.00
2018-04-08T07:50:18.194Z,5128.00
2018-04-08T07:52:11.640Z,4940.00
2018-04-08T07:53:11.501Z,4860.00
2018-04-08T07:55:05.921Z,4728.00
2018-04-08T07:56:05.815Z,4712.00
2018-04-08T07:57:59.115Z,4952.00
2018-04-08T07:58:59.091Z,5128.00
2018-04-08T08:00:52.537Z,5520.00
2018-04-08T08:01:52.383Z,5732.00
2018-04-08T08:03:45.702Z,6220.00
2018-04-08T08:04:45.657Z,6412.00
2018-04-08T08:06:38.732Z,6576.00
2018-04-08T08:07:38.536Z,6740.00
2018-04-08T08:09:32.894Z,7104.00
2018-04-08T08:10:32.828Z,7240.00
2018-04-08T08:12:26.190Z,7508.00
2018-04-08T08:13:26.124Z,7628.00
2018-04-08T08:15:20.495Z,7912.00
2018-04-08T08:16:20.406Z,8044.00
2018-04-08T08:18:14.946Z,8024.00
2018-04-08T08:19:14.834Z,8244.00
2018-04-08T08:21:07.846Z,8484.00
2018-04-08T08:22:07.787Z,8568.00
2018-04-08T08:24:01.358Z,8652.00
2018-04-08T08:25:01.150Z,8588.00
2018-04-08T08:26:55.490Z,8516.00
2018-04-08T08:27:55.439Z,8444.00
2018-04-08T08:29:48.760Z,8216.00
2018-04-08T08:30:48.728Z,8068.00
2018-04-08T08:32:41.763Z,8024.00
2018-04-08T08:33:41.705Z,7928.00
2018-04-08T08:35:36.037Z,7972.00
2018-04-08T08:36:35.991Z,8112.00
2018-04-08T08:38:29.358Z,8568.00
2018-04-08T08:39:29.277Z,8624.00
2018-04-08T08:41:22.862Z,8772.00
2018-04-08T08:42:22.643Z,8908.00
2018-04-08T08:44:16.027Z,9048.00
2018-04-08T08:45:15.990Z,9132.00
2018-04-08T08:47:09.333Z,9176.00
2018-04-08T08:48:09.262Z,9224.00
2018-04-08T08:50:02.600Z,9304.00
2018-04-08T08:51:02.558Z,9380.00
2018-04-08T08:52:55.577Z,9548.00
2018-04-08T08:53:55.518Z,9652.00
2018-04-08T08:55:49.926Z,9892.00
2018-04-08T08:56:49.819Z,10028.00
2018-04-08T08:58:43.183Z,10232.00
2018-04-08T08:59:43.146Z,10280.00
2018-04-08T09:01:36.472Z,10444.00
2018-04-08T09:02:36.426Z,10500.00
2018-04-08T09:04:29.891Z,10748.00
2018-04-08T09:05:29.740Z,10912.00
2018-04-08T09:07:22.566Z,11080.00
2018-04-08T09:08:22.548Z,11132.00
2018-04-08T09:10:16.013Z,11376.00
2018-04-08T09:11:15.868Z,11544.00
2018-04-08T09:13:09.298Z,11712.00
2018-04-08T09:14:09.177Z,11696.00
2018-04-08T09:16:02.094Z,11212.00
2018-04-08T09:17:02.052Z,10764.00
2018-04-08T09:18:55.423Z,10524.00
2018-04-08T09:19:55.386Z,10260.00
2018-04-08T09:21:48.698Z,9984.00
2018-04-08T09:22:48.664Z,9884.00
2018-04-08T09:24:42.118Z,9744.00
2018-04-08T09:25:41.974Z,9816.00
2018-04-08T09:27:35.291Z,9784.00
2018-04-08T09:28:35.272Z,9788.00
2018-04-08T09:30:28.175Z,9848.00
2018-04-08T09:31:28.150Z,9892.00
2018-04-08T09:33:21.473Z,9992.00
2018-04-08T09:34:21.434Z,10032.00
2018-04-08T09:36:15.605Z,10024.00
2018-04-08T09:37:15.522Z,10028.00
2018-04-08T09:39:09.075Z,10072.00
2018-04-08T09:40:08.946Z,10076.00
2018-04-08T09:42:02.273Z,10108.00
2018-04-08T09:43:02.230Z,10204.00
2018-04-08T09:44:55.596Z,10384.00
2018-04-08T09:45:55.540Z,10444.00
2018-04-08T09:47:49.009Z,10640.00
2018-04-08T09:48:48.510Z,10752.00
2018-04-08T09:50:42.852Z,10988.00
2018-04-08T09:51:42.812Z,11340.00
2018-04-08T09:53:36.184Z,30432.00
2018-04-08T09:54:36.111Z,38048.00
2018-04-08T09:56:30.070Z,38944.00
2018-04-08T09:57:29.539Z,39264.00
2018-04-08T09:59:22.849Z,39392.00
2018-04-08T10:00:22.839Z,39456.00
2018-04-08T10:02:16.152Z,39776.00
2018-04-08T10:03:16.145Z,40096.00
2018-04-08T10:05:09.610Z,40544.00
2018-04-08T10:06:09.419Z,40864.00
2018-04-08T10:08:02.771Z,41280.00
2018-04-08T10:09:02.749Z,41600.00
2018-04-08T10:10:56.121Z,42496.00
2018-04-08T10:11:56.062Z,42368.00
2018-04-08T10:13:48.948Z,43808.00
2018-04-08T10:14:48.878Z,44256.00
2018-04-08T10:16:42.232Z,44320.00
2018-04-08T10:17:42.208Z,45024.00
2018-04-08T10:19:36.629Z,47296.00
2018-04-08T10:20:36.514Z,50240.00
2018-04-08T10:22:29.885Z,54624.00
2018-04-08T10:23:29.849Z,58272.00
2018-04-08T10:25:23.188Z,69152.00
2018-04-08T10:26:23.181Z,72384.00
2018-04-08T10:28:16.528Z,73664.00
2018-04-08T10:29:16.518Z,70976.00
2018-04-08T10:31:09.870Z,66176.00
2018-04-08T10:32:09.840Z,64352.00
2018-04-08T10:34:10.845Z,65856.00
2018-04-08T10:35:03.193Z,65152.00
2018-04-08T10:36:56.546Z,62528.00
2018-04-08T10:37:56.483Z,61312.00
2018-04-08T10:39:49.905Z,58880.00
2018-04-08T10:40:49.805Z,58400.00
2018-04-08T10:42:44.240Z,59328.00
2018-04-08T10:43:44.214Z,59904.00
2018-04-08T10:45:46.229Z,59936.00
2018-04-08T10:46:38.571Z,60608.00
2018-04-08T10:48:39.556Z,58976.00
2018-04-08T10:49:31.903Z,57088.00
2018-04-08T10:51:33.099Z,54720.00
2018-04-08T10:52:25.239Z,52256.00
2018-04-08T10:54:18.784Z,48608.00
2018-04-08T10:55:18.604Z,38336.00
2018-04-08T10:57:11.964Z,53120.00
2018-04-08T10:58:11.969Z,51264.00
2018-04-08T11:00:05.303Z,51712.00
2018-04-08T11:01:05.295Z,47552.00
2018-04-08T11:02:58.616Z,44480.00
2018-04-08T11:03:58.595Z,48608.00
2018-04-08T11:05:53.014Z,48736.00
2018-04-08T11:06:52.967Z,47424.00
2018-04-08T11:08:46.318Z,33312.00
2018-04-08T11:09:46.290Z,32032.00
2018-04-08T11:11:39.679Z,40544.00
2018-04-08T11:12:39.621Z,29216.00
2018-04-08T11:14:34.028Z,16168.00
2018-04-08T11:15:33.967Z,16260.00
2018-04-08T11:17:27.354Z,14832.00
2018-04-08T11:18:27.307Z,13188.00
2018-04-08T11:20:21.668Z,11608.00
2018-04-08T11:21:21.659Z,12056.00
2018-04-08T11:23:14.934Z,11524.00
2018-04-08T11:24:14.948Z,11000.00
2018-04-08T11:26:08.488Z,10824.00
2018-04-08T11:27:08.305Z,10888.00
2018-04-08T11:29:01.672Z,11704.00
2018-04-08T11:30:01.634Z,12360.00
2018-04-08T11:31:55.022Z,13368.00
2018-04-08T11:32:54.958Z,13708.00
2018-04-08T11:34:48.295Z,13916.00
2018-04-08T11:35:48.274Z,13780.00
2018-04-08T11:37:41.650Z,14796.00
2018-04-08T11:38:41.610Z,16368.00
2018-04-08T11:40:34.966Z,20544.00
2018-04-08T11:41:34.929Z,20544.00
2018-04-08T11:43:28.344Z,36704.00
2018-04-08T11:44:28.233Z,43008.00
2018-04-08T11:46:21.735Z,34464.00
2018-04-08T11:47:21.561Z,43328.00
2018-04-08T11:49:14.937Z,33312.00
2018-04-08T11:50:14.877Z,17120.00
2018-04-08T11:52:09.245Z,15720.00
2018-04-08T11:53:09.197Z,14680.00
2018-04-08T11:55:03.553Z,18720.00
2018-04-08T11:56:03.508Z,25312.00
2018-04-08T11:57:56.893Z,38944.00
2018-04-08T11:58:56.833Z,33664.00
2018-04-08T12:00:51.190Z,42080.00
2018-04-08T12:01:51.223Z,42464.00
2018-04-08T12:03:44.536Z,44864.00
2018-04-08T12:04:44.475Z,45632.00
2018-04-08T12:06:37.951Z,45376.00
2018-04-08T12:07:37.840Z,44320.00
2018-04-08T12:09:32.532Z,37600.00
2018-04-08T12:10:31.166Z,42112.00
2018-04-08T12:12:24.526Z,42112.00
2018-04-08T12:13:24.491Z,39008.00
2018-04-08T12:15:17.873Z,29408.00
2018-04-08T12:16:17.819Z,26752.00
2018-04-08T12:18:11.276Z,24352.00
2018-04-08T12:19:11.200Z,23552.00
2018-04-08T12:21:04.574Z,23104.00
2018-04-08T12:22:04.551Z,23200.00
2018-04-08T12:23:57.884Z,22528.00
2018-04-08T12:24:57.894Z,21632.00
2018-04-08T12:26:52.262Z,21600.00
2018-04-08T12:27:52.199Z,20864.00
2018-04-08T12:29:46.591Z,20832.00
2018-04-08T12:30:46.547Z,23200.00
2018-04-08T12:32:39.914Z,24352.00
2018-04-08T12:33:39.871Z,27584.00
2018-04-08T12:35:34.255Z,41856.00
2018-04-08T12:36:34.302Z,47680.00
2018-04-08T12:38:27.607Z,48896.00
2018-04-08T12:39:27.528Z,48192.00
2018-04-08T12:41:20.914Z,46656.00
2018-04-08T12:42:20.871Z,46848.00
2018-04-08T12:44:14.242Z,43968.00
2018-04-08T12:45:14.198Z,41664.00
2018-04-08T12:47:07.555Z,36896.00
2018-04-08T12:48:07.499Z,34304.00
2018-04-08T12:50:02.023Z,32192.00
2018-04-08T12:51:01.822Z,29952.00
2018-04-08T12:52:55.176Z,26912.00
2018-04-08T12:53:55.167Z,26048.00
2018-04-08T12:55:57.151Z,24800.00
2018-04-08T12:56:49.492Z,23872.00
2018-04-08T12:58:42.863Z,22720.00
2018-04-08T12:59:42.811Z,22464.00
2018-04-08T13:01:36.353Z,21600.00
2018-04-08T13:02:36.221Z,21344.00
2018-04-08T13:04:29.553Z,20448.00
2018-04-08T13:05:29.552Z,19616.00
2018-04-08T13:07:22.902Z,19200.00
2018-04-08T13:08:22.862Z,19456.00
2018-04-08T13:10:16.209Z,18912.00
2018-04-08T13:11:16.188Z,18880.00
2018-04-08T13:13:09.852Z,18720.00
2018-04-08T13:14:09.741Z,18368.00
2018-04-08T13:16:04.390Z,18272.00
2018-04-08T13:17:04.217Z,17664.00
2018-04-08T13:18:57.601Z,17984.00
2018-04-08T13:19:57.580Z,17632.00
2018-04-08T13:21:50.927Z,17504.00
2018-04-08T13:22:50.906Z,17504.00
2018-04-08T13:24:44.244Z,17504.00
2018-04-08T13:25:44.272Z,17376.00
2018-04-08T13:27:37.347Z,17152.00
2018-04-08T13:28:37.369Z,16928.00
2018-04-08T13:30:30.673Z,16672.00
2018-04-08T13:31:30.648Z,16384.00
2018-04-08T13:33:24.090Z,16156.00
2018-04-08T13:34:23.987Z,15004.00
2018-04-08T13:36:17.462Z,15092.00
2018-04-08T13:37:17.426Z,14932.00
2018-04-08T13:39:10.811Z,15100.00
2018-04-08T13:40:10.774Z,14900.00
2018-04-08T13:42:04.177Z,15520.00
2018-04-08T13:43:04.141Z,15284.00
2018-04-08T13:44:57.534Z,15092.00
2018-04-08T13:45:57.432Z,15084.00
2018-04-08T13:47:50.777Z,14520.00
2018-04-08T13:48:50.721Z,14460.00
2018-04-08T13:50:44.070Z,14144.00
2018-04-08T13:51:44.148Z,14128.00
2018-04-08T13:53:37.417Z,14092.00
2018-04-08T13:54:37.356Z,14072.00
2018-04-08T13:56:30.745Z,13488.00
2018-04-08T13:57:30.717Z,13164.00
2018-04-08T13:59:24.103Z,13204.00
2018-04-08T14:00:24.045Z,12936.00
2018-04-08T14:02:17.443Z,11288.00
2018-04-08T14:03:17.372Z,11580.00
2018-04-08T14:05:10.803Z,11420.00
2018-04-08T14:06:10.671Z,11176.00
2018-04-08T14:08:04.822Z,11520.00
2018-04-08T14:09:04.142Z,13032.00
2018-04-08T14:10:57.491Z,11280.00
2018-04-08T14:11:57.454Z,10596.00
2018-04-08T14:13:50.833Z,10588.00
2018-04-08T14:14:50.786Z,10300.00
2018-04-08T14:16:44.263Z,11168.00
2018-04-08T14:17:44.162Z,11308.00
2018-04-08T14:19:37.578Z,11460.00
2018-04-08T14:20:37.563Z,11144.00
2018-04-08T14:22:30.952Z,11812.00
2018-04-08T14:23:30.895Z,11576.00
2018-04-08T14:25:24.247Z,11128.00
2018-04-08T14:26:24.199Z,10500.00
2018-04-08T14:28:17.564Z,10176.00
2018-04-08T14:29:17.536Z,10596.00
2018-04-08T14:31:10.867Z,9956.00
2018-04-08T14:32:10.862Z,9172.00
2018-04-08T14:34:04.629Z,9312.00
2018-04-08T14:35:04.611Z,9588.00
2018-04-08T14:36:57.992Z,9444.00
2018-04-08T14:37:57.988Z,9888.00
2018-04-08T14:39:51.346Z,8772.00
2018-04-08T14:40:51.330Z,8568.00
2018-04-08T14:42:44.699Z,7992.00
2018-04-08T14:43:44.647Z,8004.00
2018-04-08T14:45:38.267Z,7664.00
2018-04-08T14:46:38.098Z,7812.00
2018-04-08T14:48:32.290Z,7720.00
2018-04-08T14:49:32.325Z,7456.00
2018-04-08T14:51:25.664Z,6868.00
2018-04-08T14:52:25.565Z,8052.00
2018-04-08T14:54:19.050Z,8292.00
2018-04-08T14:55:18.893Z,8036.00
2018-04-08T14:57:12.266Z,8324.00
2018-04-08T14:58:12.200Z,8116.00
2018-04-08T15:00:06.264Z,7400.00
2018-04-08T15:01:05.528Z,7908.00
2018-04-08T15:02:58.941Z,8604.00
2018-04-08T15:03:58.947Z,8700.00
2018-04-08T15:05:52.188Z,9252.00
2018-04-08T15:06:52.227Z,9224.00
2018-04-08T15:08:45.523Z,9204.00
2018-04-08T15:09:45.577Z,9288.00
2018-04-08T15:11:38.839Z,9080.00
2018-04-08T15:12:38.805Z,9104.00
2018-04-08T15:14:32.411Z,9028.00
2018-04-08T15:15:32.140Z,8884.00
2018-04-08T15:17:25.521Z,8676.00
2018-04-08T15:18:25.463Z,8656.00
2018-04-08T15:20:18.888Z,8660.00
2018-04-08T15:21:18.759Z,8668.00
2018-04-08T15:23:12.207Z,7948.00
2018-04-08T15:24:12.086Z,7892.00
2018-04-08T15:26:05.441Z,7496.00
2018-04-08T15:27:05.395Z,7564.00
2018-04-08T15:28:58.754Z,7404.00
2018-04-08T15:29:58.795Z,7336.00
2018-04-08T15:31:52.135Z,7408.00
2018-04-08T15:32:52.059Z,7572.00
2018-04-08T15:34:45.610Z,8052.00
2018-04-08T15:35:45.429Z,7904.00
2018-04-08T15:37:38.796Z,8372.00
2018-04-08T15:38:38.767Z,8200.00
2018-04-08T15:40:32.073Z,8604.00
2018-04-08T15:41:32.054Z,8276.00
2018-04-08T15:43:25.458Z,8416.00
2018-04-08T15:44:25.371Z,8304.00
2018-04-08T15:46:18.717Z,8288.00
2018-04-08T15:47:18.709Z,8216.00
2018-04-08T15:49:12.036Z,8096.00
2018-04-08T15:50:11.988Z,7724.00
2018-04-08T15:52:05.357Z,6976.00
2018-04-08T15:53:05.314Z,6672.00
2018-04-08T15:54:58.722Z,6288.00
2018-04-08T15:55:58.658Z,6196.00
2018-04-08T15:57:51.968Z,5708.00
2018-04-08T15:58:51.946Z,5316.00
2018-04-08T16:00:45.414Z,4808.00
2018-04-08T16:01:45.313Z,4804.00
2018-04-08T16:03:38.756Z,4788.00
2018-04-08T16:04:38.570Z,4684.00
2018-04-08T16:06:31.891Z,4464.00
2018-04-08T16:07:31.885Z,4396.00
2018-04-08T16:09:25.222Z,4308.00
2018-04-08T16:10:25.180Z,4308.00
2018-04-08T16:12:18.537Z,4324.00
2018-04-08T16:13:18.487Z,4372.00
2018-04-08T16:15:12.096Z,4476.00
2018-04-08T16:16:11.918Z,4740.00
2018-04-08T16:18:06.196Z,5236.00
2018-04-08T16:19:06.215Z,5756.00
2018-04-08T16:20:59.549Z,5948.00
2018-04-08T16:21:59.502Z,5996.00
2018-04-08T16:23:52.908Z,6068.00
2018-04-08T16:24:52.816Z,5792.00
2018-04-08T16:26:46.183Z,6016.00
2018-04-08T16:27:46.216Z,6500.00
2018-04-08T16:29:39.439Z,6496.00
2018-04-08T16:30:39.417Z,6512.00
2018-04-08T16:32:32.809Z,6408.00
2018-04-08T16:33:32.734Z,6136.00
2018-04-08T16:35:26.262Z,6192.00
2018-04-08T16:36:26.158Z,6124.00
2018-04-08T16:38:19.488Z,6000.00
2018-04-08T16:39:19.454Z,5964.00
2018-04-08T16:41:12.809Z,5828.00
2018-04-08T16:42:12.758Z,5824.00
2018-04-08T16:44:06.153Z,5600.00
2018-04-08T16:45:06.146Z,5476.00
2018-04-08T16:46:59.464Z,5420.00
2018-04-08T16:47:59.390Z,5200.00
2018-04-08T16:49:52.739Z,4852.00
2018-04-08T16:50:52.808Z,4600.00
2018-04-08T16:52:46.228Z,4456.00
2018-04-08T16:53:46.006Z,4700.00
2018-04-08T16:55:39.458Z,4476.00
2018-04-08T16:56:39.379Z,4516.00
2018-04-08T16:58:32.724Z,4356.00
2018-04-08T16:59:32.672Z,4336.00
2018-04-08T17:01:26.225Z,3836.00
2018-04-08T17:02:26.016Z,3756.00
2018-04-08T17:04:19.492Z,2844.00
2018-04-08T17:05:19.463Z,2672.00
2018-04-08T17:07:12.709Z,2484.00
2018-04-08T17:08:12.673Z,2436.00
2018-04-08T17:10:06.079Z,2276.00
2018-04-08T17:11:06.792Z,2192.00
2018-04-08T17:12:59.358Z,2080.00
2018-04-08T17:13:59.295Z,2080.00
2018-04-08T17:15:52.782Z,2140.00
2018-04-08T17:16:52.681Z,2112.00
2018-04-08T17:18:46.068Z,2108.00
2018-04-08T17:19:45.978Z,2068.00
2018-04-08T17:21:39.347Z,1708.00
2018-04-08T17:22:39.272Z,1568.00
2018-04-08T17:24:32.770Z,1500.00
2018-04-08T17:25:32.575Z,1444.00
2018-04-08T17:27:25.963Z,1336.00
2018-04-08T17:28:25.895Z,1280.00
2018-04-08T17:30:19.240Z,1200.00
2018-04-08T17:31:19.205Z,1168.00
2018-04-08T17:33:12.628Z,1108.00
2018-04-08T17:34:12.505Z,1076.00
2018-04-08T17:36:05.971Z,1020.00
2018-04-08T17:37:05.948Z,996.00
2018-04-08T17:38:59.286Z,952.00
2018-04-08T17:39:59.307Z,920.00
2018-04-08T17:41:52.561Z,864.00
2018-04-08T17:42:52.540Z,828.00
2018-04-08T17:44:46.068Z,780.00
2018-04-08T17:45:45.873Z,752.00
2018-04-08T17:47:39.213Z,704.00